sensor_id;sensor_type;location;lat;lon;timestamp;pressure;altitude;pressure_sealevel;temperature;humidity
70072;BME280;57434;42.794;23.302;2023-04-07T00:00:08;95418.44;;;-0.56;72.98
70072;BME280;57434;42.794;23.302;2023-04-07T00:01:10;95417.59;;;-0.73;73.54
70072;BME280;57434;42.794;23.302;2023-04-07T00:02:11;95292.16;;;-1.53;73.35
70072;BME280;57434;42.794;23.302;2023-04-07T00:03:14;95419.91;;;-0.72;73.50
70072;BME280;57434;42.794;23.302;2023-04-07T00:04:16;95296.88;;;-1.54;73.64
70072;BME280;57434;42.794;23.302;2023-04-07T00:05:18;95441.75;;;-0.81;73.88
70072;BME280;57434;42.794;23.302;2023-04-07T00:06:20;95430.28;;;-0.99;73.96
70072;BME280;57434;42.794;23.302;2023-04-07T00:07:22;95423.94;;;-0.96;74.50
70072;BME280;57434;42.794;23.302;2023-04-07T00:08:23;95421.81;;;-1.08;74.25
70072;BME280;57434;42.794;23.302;2023-04-07T00:09:25;95433.97;;;-0.86;74.25
70072;BME280;57434;42.794;23.302;2023-04-07T00:10:27;95406.44;;;-0.86;73.55
70072;BME280;57434;42.794;23.302;2023-04-07T00:11:29;95403.09;;;-0.97;73.64
70072;BME280;57434;42.794;23.302;2023-04-07T00:12:31;95416.06;;;-0.74;73.78
70072;BME280;57434;42.794;23.302;2023-04-07T00:13:33;95407.19;;;-0.66;73.75
70072;BME280;57434;42.794;23.302;2023-04-07T00:14:35;95415.69;;;-0.56;73.63
70072;BME280;57434;42.794;23.302;2023-04-07T00:15:37;95411.28;;;-0.54;73.47
70072;BME280;57434;42.794;23.302;2023-04-07T00:16:39;95406.22;;;-0.55;73.04
70072;BME280;57434;42.794;23.302;2023-04-07T00:17:41;95439.41;;;-0.62;73.07
70072;BME280;57434;42.794;23.302;2023-04-07T00:18:43;95273.06;;;-1.60;73.55
70072;BME280;57434;42.794;23.302;2023-04-07T00:19:45;95275.16;;;-1.48;73.48
70072;BME280;57434;42.794;23.302;2023-04-07T00:20:47;95423.22;;;-0.60;73.32
70072;BME280;57434;42.794;23.302;2023-04-07T00:21:49;95431.50;;;-0.60;73.00
70072;BME280;57434;42.794;23.302;2023-04-07T00:22:50;95408.97;;;-0.55;73.04
70072;BME280;57434;42.794;23.302;2023-04-07T00:23:52;95336.25;;;-1.17;73.26
70072;BME280;57434;42.794;23.302;2023-04-07T00:24:55;95396.00;;;-0.75;73.52
70072;BME280;57434;42.794;23.302;2023-04-07T00:25:57;95391.75;;;-0.79;73.80
70072;BME280;57434;42.794;23.302;2023-04-07T00:26:59;95433.84;;;-0.79;74.02
70072;BME280;57434;42.794;23.302;2023-04-07T00:28:00;95421.28;;;-0.80;74.19
70072;BME280;57434;42.794;23.302;2023-04-07T00:29:02;95284.06;;;-1.60;73.91
70072;BME280;57434;42.794;23.302;2023-04-07T00:30:05;95398.91;;;-1.02;74.12
70072;BME280;57434;42.794;23.302;2023-04-07T00:31:07;95299.19;;;-1.72;74.42
70072;BME280;57434;42.794;23.302;2023-04-07T00:32:09;95394.00;;;-1.14;74.57
70072;BME280;57434;42.794;23.302;2023-04-07T00:33:11;95408.53;;;-1.13;75.08
70072;BME280;57434;42.794;23.302;2023-04-07T00:34:13;95415.91;;;-1.07;74.95
70072;BME280;57434;42.794;23.302;2023-04-07T00:35:15;95401.47;;;-1.14;74.79
70072;BME280;57434;42.794;23.302;2023-04-07T00:36:17;95261.94;;;-1.96;74.55
70072;BME280;57434;42.794;23.302;2023-04-07T00:37:19;95402.50;;;-1.05;74.98
70072;BME280;57434;42.794;23.302;2023-04-07T00:38:21;95419.63;;;-1.17;74.72
70072;BME280;57434;42.794;23.302;2023-04-07T00:39:22;95418.59;;;-1.26;74.80
70072;BME280;57434;42.794;23.302;2023-04-07T00:40:24;95298.50;;;-1.99;74.92
70072;BME280;57434;42.794;23.302;2023-04-07T00:41:26;95263.88;;;-2.17;74.97
70072;BME280;57434;42.794;23.302;2023-04-07T00:42:28;95414.25;;;-1.24;74.76
70072;BME280;57434;42.794;23.302;2023-04-07T00:43:30;95308.59;;;-1.93;74.50
70072;BME280;57434;42.794;23.302;2023-04-07T00:44:32;95291.56;;;-2.08;74.20
70072;BME280;57434;42.794;23.302;2023-04-07T00:45:35;95417.75;;;-1.43;74.58
70072;BME280;57434;42.794;23.302;2023-04-07T00:46:37;95409.19;;;-1.49;74.36
70072;BME280;57434;42.794;23.302;2023-04-07T00:47:40;95413.34;;;-1.60;74.56
70072;BME280;57434;42.794;23.302;2023-04-07T00:48:42;95432.75;;;-1.71;74.57
70072;BME280;57434;42.794;23.302;2023-04-07T00:49:44;95398.03;;;-1.85;74.75
70072;BME280;57434;42.794;23.302;2023-04-07T00:50:46;95412.72;;;-1.72;74.69
70072;BME280;57434;42.794;23.302;2023-04-07T00:51:48;95411.28;;;-1.80;75.03
70072;BME280;57434;42.794;23.302;2023-04-07T00:52:50;95351.19;;;-2.05;74.97
70072;BME280;57434;42.794;23.302;2023-04-07T00:53:53;95429.78;;;-1.57;74.81
70072;BME280;57434;42.794;23.302;2023-04-07T00:54:55;95410.03;;;-1.75;75.03
70072;BME280;57434;42.794;23.302;2023-04-07T00:55:58;95376.56;;;-1.93;75.03
70072;BME280;57434;42.794;23.302;2023-04-07T00:57:00;95391.34;;;-1.84;75.11
70072;BME280;57434;42.794;23.302;2023-04-07T00:58:02;95397.88;;;-1.78;75.36
70072;BME280;57434;42.794;23.302;2023-04-07T00:59:04;95393.00;;;-1.90;75.28
70072;BME280;57434;42.794;23.302;2023-04-07T01:00:06;95322.03;;;-2.45;75.51
70072;BME280;57434;42.794;23.302;2023-04-07T01:02:07;95411.31;;;-2.07;75.68
70072;BME280;57434;42.794;23.302;2023-04-07T01:02:44;95278.53;;;-2.74;75.74
70072;BME280;57434;42.794;23.302;2023-04-07T01:04:00;95407.84;;;-1.84;75.83
70072;BME280;57434;42.794;23.302;2023-04-07T01:05:29;95390.78;;;-1.98;75.77
70072;BME280;57434;42.794;23.302;2023-04-07T01:06:39;95275.81;;;-2.77;75.92
70072;BME280;57434;42.794;23.302;2023-04-07T01:08:13;95277.56;;;-2.63;75.51
70072;BME280;57434;42.794;23.302;2023-04-07T01:09:20;95397.84;;;-1.74;75.08
70072;BME280;57434;42.794;23.302;2023-04-07T01:10:34;95378.28;;;-1.80;74.43
70072;BME280;57434;42.794;23.302;2023-04-07T01:12:14;95401.66;;;-1.68;74.78
70072;BME280;57434;42.794;23.302;2023-04-07T01:14:21;95372.88;;;-1.83;74.98
70072;BME280;57434;42.794;23.302;2023-04-07T01:15:26;95308.59;;;-2.40;75.30
70072;BME280;57434;42.794;23.302;2023-04-07T01:16:37;95394.19;;;-1.67;75.54
70072;BME280;57434;42.794;23.302;2023-04-07T01:17:46;95378.41;;;-1.87;75.65
70072;BME280;57434;42.794;23.302;2023-04-07T01:18:51;95259.56;;;-2.64;75.78
70072;BME280;57434;42.794;23.302;2023-04-07T01:20:03;95381.69;;;-1.95;75.96
70072;BME280;57434;42.794;23.302;2023-04-07T01:21:10;95265.47;;;-2.66;75.79
70072;BME280;57434;42.794;23.302;2023-04-07T01:22:18;95394.72;;;-1.76;75.57
70072;BME280;57434;42.794;23.302;2023-04-07T01:25:33;95420.50;;;-1.66;75.30
70072;BME280;57434;42.794;23.302;2023-04-07T01:26:36;95386.00;;;-1.71;75.29
70072;BME280;57434;42.794;23.302;2023-04-07T01:30:22;95316.56;;;-1.98;74.23
70072;BME280;57434;42.794;23.302;2023-04-07T01:31:28;95370.88;;;-1.59;74.14
70072;BME280;57434;42.794;23.302;2023-04-07T01:32:31;95392.69;;;-1.72;74.36
70072;BME280;57434;42.794;23.302;2023-04-07T01:33:36;95305.19;;;-2.24;74.86
70072;BME280;57434;42.794;23.302;2023-04-07T01:34:39;95397.25;;;-1.62;75.26
70072;BME280;57434;42.794;23.302;2023-04-07T01:35:42;95395.81;;;-1.70;74.87
70072;BME280;57434;42.794;23.302;2023-04-07T01:36:46;95390.91;;;-1.59;74.71
70072;BME280;57434;42.794;23.302;2023-04-07T01:37:49;95293.75;;;-2.19;74.51
70072;BME280;57434;42.794;23.302;2023-04-07T01:38:53;95315.41;;;-2.01;74.55
70072;BME280;57434;42.794;23.302;2023-04-07T01:39:55;95396.97;;;-1.48;74.44
70072;BME280;57434;42.794;23.302;2023-04-07T01:40:58;95397.03;;;-1.51;74.79
70072;BME280;57434;42.794;23.302;2023-04-07T01:42:03;95375.44;;;-1.53;74.67
70072;BME280;57434;42.794;23.302;2023-04-07T01:43:07;95392.78;;;-1.32;74.64
70072;BME280;57434;42.794;23.302;2023-04-07T01:44:10;95370.72;;;-1.52;74.31
70072;BME280;57434;42.794;23.302;2023-04-07T01:45:12;95252.38;;;-2.35;74.34
70072;BME280;57434;42.794;23.302;2023-04-07T01:46:15;95377.56;;;-1.60;75.08
70072;BME280;57434;42.794;23.302;2023-04-07T01:47:17;95302.66;;;-2.11;75.11
70072;BME280;57434;42.794;23.302;2023-04-07T01:48:20;95386.16;;;-1.35;74.83
70072;BME280;57434;42.794;23.302;2023-04-07T01:49:22;95382.50;;;-1.28;74.83
70072;BME280;57434;42.794;23.302;2023-04-07T01:50:26;95383.97;;;-1.24;74.51
70072;BME280;57434;42.794;23.302;2023-04-07T01:51:29;95385.63;;;-1.50;74.72
70072;BME280;57434;42.794;23.302;2023-04-07T01:52:33;95274.03;;;-2.14;74.93
70072;BME280;57434;42.794;23.302;2023-04-07T01:53:37;95303.75;;;-2.09;74.91
70072;BME280;57434;42.794;23.302;2023-04-07T01:54:40;95379.41;;;-1.54;75.31
70072;BME280;57434;42.794;23.302;2023-04-07T01:55:42;95387.50;;;-1.66;75.83
70072;BME280;57434;42.794;23.302;2023-04-07T01:56:44;95386.31;;;-1.65;75.75
70072;BME280;57434;42.794;23.302;2023-04-07T01:57:46;95378.19;;;-1.53;75.93
70072;BME280;57434;42.794;23.302;2023-04-07T01:58:48;95379.75;;;-1.52;76.07
70072;BME280;57434;42.794;23.302;2023-04-07T01:59:50;95375.44;;;-1.29;76.05
70072;BME280;57434;42.794;23.302;2023-04-07T02:00:51;95316.28;;;-1.61;75.54
70072;BME280;57434;42.794;23.302;2023-04-07T02:01:53;95358.34;;;-1.21;75.06
70072;BME280;57434;42.794;23.302;2023-04-07T02:02:58;95396.75;;;-1.14;74.54
70072;BME280;57434;42.794;23.302;2023-04-07T02:05:25;95357.78;;;-1.12;74.15
70072;BME280;57434;42.794;23.302;2023-04-07T02:06:38;95364.16;;;-1.15;73.89
70072;BME280;57434;42.794;23.302;2023-04-07T02:07:49;95375.22;;;-0.99;74.38
70072;BME280;57434;42.794;23.302;2023-04-07T02:08:56;95356.72;;;-1.18;74.81
70072;BME280;57434;42.794;23.302;2023-04-07T02:10:01;95398.56;;;-1.27;75.30
70072;BME280;57434;42.794;23.302;2023-04-07T02:11:04;95370.63;;;-1.25;75.17
70072;BME280;57434;42.794;23.302;2023-04-07T02:12:08;95371.63;;;-1.36;75.37
70072;BME280;57434;42.794;23.302;2023-04-07T02:13:15;95388.34;;;-1.26;75.42
70072;BME280;57434;42.794;23.302;2023-04-07T02:14:20;95378.47;;;-1.24;74.69
70072;BME280;57434;42.794;23.302;2023-04-07T02:15:22;95378.03;;;-1.22;74.58
70072;BME280;57434;42.794;23.302;2023-04-07T02:16:27;95239.34;;;-2.08;74.22
70072;BME280;57434;42.794;23.302;2023-04-07T02:17:32;95395.91;;;-1.11;74.17
70072;BME280;57434;42.794;23.302;2023-04-07T02:18:36;95393.44;;;-1.05;74.36
70072;BME280;57434;42.794;23.302;2023-04-07T02:19:38;95383.84;;;-0.97;74.28
70072;BME280;57434;42.794;23.302;2023-04-07T02:20:42;95384.59;;;-0.96;74.36
70072;BME280;57434;42.794;23.302;2023-04-07T02:21:46;95365.34;;;-0.96;74.30
70072;BME280;57434;42.794;23.302;2023-04-07T02:22:49;95253.22;;;-1.72;74.39
70072;BME280;57434;42.794;23.302;2023-04-07T02:23:51;95366.63;;;-1.01;74.51
70072;BME280;57434;42.794;23.302;2023-04-07T02:24:52;95250.09;;;-1.74;74.59
70072;BME280;57434;42.794;23.302;2023-04-07T02:25:56;95354.69;;;-0.94;74.72
70072;BME280;57434;42.794;23.302;2023-04-07T02:26:58;95401.78;;;-0.89;74.87
70072;BME280;57434;42.794;23.302;2023-04-07T02:28:00;95360.59;;;-0.96;74.49
70072;BME280;57434;42.794;23.302;2023-04-07T02:29:03;95377.00;;;-0.89;74.81
70072;BME280;57434;42.794;23.302;2023-04-07T02:30:05;95371.13;;;-0.91;74.87
70072;BME280;57434;42.794;23.302;2023-04-07T02:31:07;95375.66;;;-0.81;74.90
70072;BME280;57434;42.794;23.302;2023-04-07T02:32:09;95381.34;;;-0.72;74.56
70072;BME280;57434;42.794;23.302;2023-04-07T02:33:11;95362.38;;;-0.86;74.19
70072;BME280;57434;42.794;23.302;2023-04-07T02:34:12;95377.66;;;-1.01;74.69
70072;BME280;57434;42.794;23.302;2023-04-07T02:35:15;95353.41;;;-1.10;74.91
70072;BME280;57434;42.794;23.302;2023-04-07T02:36:17;95375.38;;;-0.86;74.54
70072;BME280;57434;42.794;23.302;2023-04-07T02:37:19;95372.69;;;-1.29;75.91
70072;BME280;57434;42.794;23.302;2023-04-07T02:38:21;95371.75;;;-1.43;76.54
70072;BME280;57434;42.794;23.302;2023-04-07T02:39:22;95376.13;;;-1.25;76.44
70072;BME280;57434;42.794;23.302;2023-04-07T02:40:24;95252.97;;;-2.00;76.08
70072;BME280;57434;42.794;23.302;2023-04-07T02:41:26;95371.56;;;-1.12;76.13
70072;BME280;57434;42.794;23.302;2023-04-07T02:42:28;95242.81;;;-2.04;76.19
70072;BME280;57434;42.794;23.302;2023-04-07T02:43:29;95382.34;;;-1.21;76.00
70072;BME280;57434;42.794;23.302;2023-04-07T02:44:31;95393.38;;;-1.02;75.62
70072;BME280;57434;42.794;23.302;2023-04-07T02:45:33;95262.78;;;-1.80;75.26
70072;BME280;57434;42.794;23.302;2023-04-07T02:46:35;95353.06;;;-1.31;75.69
70072;BME280;57434;42.794;23.302;2023-04-07T02:47:37;95378.13;;;-1.06;75.78
70072;BME280;57434;42.794;23.302;2023-04-07T02:48:39;95365.56;;;-1.07;75.57
70072;BME280;57434;42.794;23.302;2023-04-07T02:49:41;95373.09;;;-0.91;75.78
70072;BME280;57434;42.794;23.302;2023-04-07T02:50:43;95372.75;;;-0.93;75.60
70072;BME280;57434;42.794;23.302;2023-04-07T02:51:45;95371.25;;;-0.98;75.34
70072;BME280;57434;42.794;23.302;2023-04-07T02:52:47;95380.56;;;-0.72;74.85
70072;BME280;57434;42.794;23.302;2023-04-07T02:53:48;95237.44;;;-1.67;74.81
70072;BME280;57434;42.794;23.302;2023-04-07T02:54:50;95378.91;;;-0.86;74.74
70072;BME280;57434;42.794;23.302;2023-04-07T02:55:52;95396.28;;;-0.89;74.96
70072;BME280;57434;42.794;23.302;2023-04-07T02:56:54;95384.34;;;-0.82;74.37
70072;BME280;57434;42.794;23.302;2023-04-07T02:57:55;95376.16;;;-1.06;74.31
70072;BME280;57434;42.794;23.302;2023-04-07T02:58:57;95378.31;;;-0.97;74.62
70072;BME280;57434;42.794;23.302;2023-04-07T02:59:59;95375.44;;;-0.90;74.84
70072;BME280;57434;42.794;23.302;2023-04-07T03:01:01;95405.00;;;-0.94;74.62
70072;BME280;57434;42.794;23.302;2023-04-07T03:02:03;95383.34;;;-0.92;74.73
70072;BME280;57434;42.794;23.302;2023-04-07T03:03:05;95285.09;;;-1.54;74.85
70072;BME280;57434;42.794;23.302;2023-04-07T03:04:07;95385.44;;;-1.00;75.07
70072;BME280;57434;42.794;23.302;2023-04-07T03:05:09;95369.94;;;-1.10;75.21
70072;BME280;57434;42.794;23.302;2023-04-07T03:06:12;95351.88;;;-1.11;75.14
70072;BME280;57434;42.794;23.302;2023-04-07T03:07:14;95272.81;;;-1.70;75.04
70072;BME280;57434;42.794;23.302;2023-04-07T03:08:16;95284.19;;;-1.67;74.96
70072;BME280;57434;42.794;23.302;2023-04-07T03:09:18;95392.38;;;-1.11;75.49
70072;BME280;57434;42.794;23.302;2023-04-07T03:10:19;95385.56;;;-1.03;75.06
70072;BME280;57434;42.794;23.302;2023-04-07T03:11:21;95384.34;;;-1.02;74.58
70072;BME280;57434;42.794;23.302;2023-04-07T03:12:23;95379.47;;;-1.14;74.62
70072;BME280;57434;42.794;23.302;2023-04-07T03:13:25;95380.09;;;-1.07;74.59
70072;BME280;57434;42.794;23.302;2023-04-07T03:14:27;95388.72;;;-1.05;74.90
70072;BME280;57434;42.794;23.302;2023-04-07T03:15:29;95395.44;;;-1.06;75.10
70072;BME280;57434;42.794;23.302;2023-04-07T03:16:30;95362.09;;;-1.31;75.16
70072;BME280;57434;42.794;23.302;2023-04-07T03:17:32;95388.00;;;-1.28;74.98
70072;BME280;57434;42.794;23.302;2023-04-07T03:18:34;95246.69;;;-2.01;74.25
70072;BME280;57434;42.794;23.302;2023-04-07T03:19:36;95384.25;;;-1.18;74.79
70072;BME280;57434;42.794;23.302;2023-04-07T03:20:38;95378.56;;;-1.27;74.70
70072;BME280;57434;42.794;23.302;2023-04-07T03:21:40;95375.81;;;-1.27;74.82
70072;BME280;57434;42.794;23.302;2023-04-07T03:22:41;95370.28;;;-1.27;74.85
70072;BME280;57434;42.794;23.302;2023-04-07T03:23:43;95390.13;;;-1.16;75.12
70072;BME280;57434;42.794;23.302;2023-04-07T03:24:45;95288.09;;;-1.88;75.34
70072;BME280;57434;42.794;23.302;2023-04-07T03:25:47;95387.78;;;-1.38;75.66
70072;BME280;57434;42.794;23.302;2023-04-07T03:26:49;95254.34;;;-2.36;75.84
70072;BME280;57434;42.794;23.302;2023-04-07T03:27:51;95410.13;;;-1.36;75.88
70072;BME280;57434;42.794;23.302;2023-04-07T03:28:52;95295.44;;;-2.05;75.91
70072;BME280;57434;42.794;23.302;2023-04-07T03:29:54;95380.72;;;-1.39;76.01
70072;BME280;57434;42.794;23.302;2023-04-07T03:30:56;95374.50;;;-1.43;75.97
70072;BME280;57434;42.794;23.302;2023-04-07T03:31:58;95356.38;;;-1.40;76.07
70072;BME280;57434;42.794;23.302;2023-04-07T03:33:00;95383.81;;;-1.37;76.06
70072;BME280;57434;42.794;23.302;2023-04-07T03:34:02;95387.72;;;-1.14;75.95
70072;BME280;57434;42.794;23.302;2023-04-07T03:35:04;95387.31;;;-1.13;75.70
70072;BME280;57434;42.794;23.302;2023-04-07T03:36:06;95380.31;;;-1.17;75.68
70072;BME280;57434;42.794;23.302;2023-04-07T03:37:08;95271.69;;;-1.92;75.14
70072;BME280;57434;42.794;23.302;2023-04-07T03:38:10;95386.69;;;-1.44;75.76
70072;BME280;57434;42.794;23.302;2023-04-07T03:39:12;95401.06;;;-1.32;76.03
70072;BME280;57434;42.794;23.302;2023-04-07T03:40:14;95401.81;;;-1.32;76.16
70072;BME280;57434;42.794;23.302;2023-04-07T03:41:15;95369.66;;;-1.35;76.20
70072;BME280;57434;42.794;23.302;2023-04-07T03:42:17;95372.88;;;-1.40;75.83
70072;BME280;57434;42.794;23.302;2023-04-07T03:43:19;95383.88;;;-1.40;76.03
70072;BME280;57434;42.794;23.302;2023-04-07T03:44:21;95394.22;;;-1.48;76.56
70072;BME280;57434;42.794;23.302;2023-04-07T03:45:23;95384.63;;;-1.59;76.51
70072;BME280;57434;42.794;23.302;2023-04-07T03:46:25;95403.31;;;-1.51;76.87
70072;BME280;57434;42.794;23.302;2023-04-07T03:47:27;95387.94;;;-1.48;76.66
70072;BME280;57434;42.794;23.302;2023-04-07T03:48:28;95400.84;;;-1.65;76.71
70072;BME280;57434;42.794;23.302;2023-04-07T03:49:30;95388.53;;;-1.57;77.14
70072;BME280;57434;42.794;23.302;2023-04-07T03:50:32;95412.78;;;-1.52;77.16
70072;BME280;57434;42.794;23.302;2023-04-07T03:51:34;95398.91;;;-1.45;77.30
70072;BME280;57434;42.794;23.302;2023-04-07T03:52:35;95398.06;;;-1.42;77.25
70072;BME280;57434;42.794;23.302;2023-04-07T03:53:37;95402.78;;;-1.42;77.11
70072;BME280;57434;42.794;23.302;2023-04-07T03:54:39;95408.88;;;-1.31;76.96
70072;BME280;57434;42.794;23.302;2023-04-07T03:55:41;95363.53;;;-1.66;77.29
70072;BME280;57434;42.794;23.302;2023-04-07T03:56:44;95398.41;;;-1.40;77.04
70072;BME280;57434;42.794;23.302;2023-04-07T03:57:45;95409.00;;;-1.38;77.11
70072;BME280;57434;42.794;23.302;2023-04-07T03:58:47;95400.38;;;-1.40;77.45
70072;BME280;57434;42.794;23.302;2023-04-07T03:59:49;95414.81;;;-1.32;77.45
70072;BME280;57434;42.794;23.302;2023-04-07T04:00:51;95401.47;;;-1.34;77.35
70072;BME280;57434;42.794;23.302;2023-04-07T04:01:53;95414.16;;;-1.40;77.17
70072;BME280;57434;42.794;23.302;2023-04-07T04:02:55;95276.84;;;-2.17;77.42
70072;BME280;57434;42.794;23.302;2023-04-07T04:03:57;95401.75;;;-1.28;77.44
70072;BME280;57434;42.794;23.302;2023-04-07T04:04:59;95414.38;;;-1.31;77.58
70072;BME280;57434;42.794;23.302;2023-04-07T04:06:01;95290.69;;;-2.01;77.28
70072;BME280;57434;42.794;23.302;2023-04-07T04:07:03;95401.22;;;-1.43;77.27
70072;BME280;57434;42.794;23.302;2023-04-07T04:08:05;95406.91;;;-1.30;77.68
70072;BME280;57434;42.794;23.302;2023-04-07T04:09:07;95398.09;;;-1.22;77.77
70072;BME280;57434;42.794;23.302;2023-04-07T04:10:09;95413.28;;;-1.14;77.71
70072;BME280;57434;42.794;23.302;2023-04-07T04:11:11;95406.34;;;-1.22;77.97
70072;BME280;57434;42.794;23.302;2023-04-07T04:12:13;95407.75;;;-1.14;78.12
70072;BME280;57434;42.794;23.302;2023-04-07T04:13:14;95387.50;;;-1.23;77.86
70072;BME280;57434;42.794;23.302;2023-04-07T04:14:16;95414.69;;;-1.06;78.01
70072;BME280;57434;42.794;23.302;2023-04-07T04:15:20;95408.53;;;-0.93;77.48
70072;BME280;57434;42.794;23.302;2023-04-07T04:16:21;95410.50;;;-1.33;77.38
70072;BME280;57434;42.794;23.302;2023-04-07T04:17:24;95386.22;;;-1.39;77.51
70072;BME280;57434;42.794;23.302;2023-04-07T04:18:26;95432.47;;;-1.10;77.66
70072;BME280;57434;42.794;23.302;2023-04-07T04:19:27;95402.25;;;-1.14;77.83
70072;BME280;57434;42.794;23.302;2023-04-07T04:20:29;95420.16;;;-1.02;78.26
70072;BME280;57434;42.794;23.302;2023-04-07T04:21:31;95415.75;;;-1.00;77.66
70072;BME280;57434;42.794;23.302;2023-04-07T04:22:33;95401.00;;;-0.89;77.18
70072;BME280;57434;42.794;23.302;2023-04-07T04:23:35;95304.16;;;-1.63;76.88
70072;BME280;57434;42.794;23.302;2023-04-07T04:24:36;95406.72;;;-1.00;77.61
70072;BME280;57434;42.794;23.302;2023-04-07T04:25:38;95399.09;;;-0.92;77.39
70072;BME280;57434;42.794;23.302;2023-04-07T04:26:40;95407.84;;;-0.78;76.81
70072;BME280;57434;42.794;23.302;2023-04-07T04:27:42;95416.81;;;-0.74;76.90
70072;BME280;57434;42.794;23.302;2023-04-07T04:28:44;95417.09;;;-0.68;76.78
70072;BME280;57434;42.794;23.302;2023-04-07T04:29:46;95427.50;;;-0.76;76.50
70072;BME280;57434;42.794;23.302;2023-04-07T04:30:48;95319.19;;;-1.28;76.51
70072;BME280;57434;42.794;23.302;2023-04-07T04:31:50;95424.88;;;-0.83;76.43
70072;BME280;57434;42.794;23.302;2023-04-07T04:32:51;95422.66;;;-0.72;76.79
70072;BME280;57434;42.794;23.302;2023-04-07T04:33:53;95447.91;;;-0.73;76.79
70072;BME280;57434;42.794;23.302;2023-04-07T04:34:55;95422.53;;;-0.84;76.72
70072;BME280;57434;42.794;23.302;2023-04-07T04:35:57;95410.81;;;-0.88;76.69
70072;BME280;57434;42.794;23.302;2023-04-07T04:36:59;95424.56;;;-0.69;76.74
70072;BME280;57434;42.794;23.302;2023-04-07T04:38:00;95285.81;;;-1.50;76.31
70072;BME280;57434;42.794;23.302;2023-04-07T04:39:02;95429.81;;;-0.54;75.69
70072;BME280;57434;42.794;23.302;2023-04-07T04:40:05;95422.31;;;-0.54;75.34
70072;BME280;57434;42.794;23.302;2023-04-07T04:41:07;95426.72;;;-0.40;75.40
70072;BME280;57434;42.794;23.302;2023-04-07T04:42:08;95417.69;;;-0.41;75.28
70072;BME280;57434;42.794;23.302;2023-04-07T04:43:10;95422.38;;;-0.57;75.22
70072;BME280;57434;42.794;23.302;2023-04-07T04:44:12;95415.53;;;-0.69;75.57
70072;BME280;57434;42.794;23.302;2023-04-07T04:45:14;95437.50;;;-0.66;75.62
70072;BME280;57434;42.794;23.302;2023-04-07T04:46:16;95434.28;;;-0.44;75.33
70072;BME280;57434;42.794;23.302;2023-04-07T04:47:18;95412.56;;;-0.58;76.20
70072;BME280;57434;42.794;23.302;2023-04-07T04:48:19;95433.72;;;-0.36;76.50
70072;BME280;57434;42.794;23.302;2023-04-07T04:49:22;95445.09;;;-0.34;75.50
70072;BME280;57434;42.794;23.302;2023-04-07T04:50:23;95353.53;;;-0.77;75.32
70072;BME280;57434;42.794;23.302;2023-04-07T04:51:25;95415.28;;;-0.39;76.05
70072;BME280;57434;42.794;23.302;2023-04-07T04:52:27;95436.53;;;-0.19;75.95
70072;BME280;57434;42.794;23.302;2023-04-07T04:53:29;95435.00;;;-0.20;76.19
70072;BME280;57434;42.794;23.302;2023-04-07T04:54:31;95303.63;;;-0.99;76.19
70072;BME280;57434;42.794;23.302;2023-04-07T04:55:32;95462.31;;;-0.10;75.41
70072;BME280;57434;42.794;23.302;2023-04-07T04:56:34;95417.50;;;-0.14;75.15
70072;BME280;57434;42.794;23.302;2023-04-07T04:57:36;95438.63;;;-0.07;74.91
70072;BME280;57434;42.794;23.302;2023-04-07T04:58:38;95422.63;;;0.04;75.12
70072;BME280;57434;42.794;23.302;2023-04-07T04:59:40;95455.28;;;0.06;75.21
70072;BME280;57434;42.794;23.302;2023-04-07T05:00:42;95438.47;;;0.16;74.97
70072;BME280;57434;42.794;23.302;2023-04-07T05:01:44;95437.34;;;0.14;75.26
70072;BME280;57434;42.794;23.302;2023-04-07T05:02:46;95406.66;;;-0.05;75.00
70072;BME280;57434;42.794;23.302;2023-04-07T05:03:48;95442.19;;;0.26;74.57
70072;BME280;57434;42.794;23.302;2023-04-07T05:04:50;95417.09;;;0.20;74.42
70072;BME280;57434;42.794;23.302;2023-04-07T05:05:52;95449.78;;;0.22;74.11
70072;BME280;57434;42.794;23.302;2023-04-07T05:06:54;95357.75;;;-0.37;74.35
70072;BME280;57434;42.794;23.302;2023-04-07T05:07:56;95439.63;;;0.35;74.13
70072;BME280;57434;42.794;23.302;2023-04-07T05:08:58;95435.97;;;0.38;74.20
70072;BME280;57434;42.794;23.302;2023-04-07T05:09:59;95451.09;;;0.50;74.21
70072;BME280;57434;42.794;23.302;2023-04-07T05:11:01;95442.38;;;0.51;74.13
70072;BME280;57434;42.794;23.302;2023-04-07T05:12:03;95449.44;;;0.52;74.40
70072;BME280;57434;42.794;23.302;2023-04-07T05:13:05;95452.22;;;0.52;74.82
70072;BME280;57434;42.794;23.302;2023-04-07T05:14:08;95449.44;;;0.52;74.96
70072;BME280;57434;42.794;23.302;2023-04-07T05:15:10;95456.53;;;0.53;74.63
70072;BME280;57434;42.794;23.302;2023-04-07T05:16:12;95450.81;;;0.44;74.08
70072;BME280;57434;42.794;23.302;2023-04-07T05:17:16;95438.06;;;0.50;73.77
70072;BME280;57434;42.794;23.302;2023-04-07T05:18:18;95449.63;;;0.61;73.70
70072;BME280;57434;42.794;23.302;2023-04-07T05:19:22;95384.50;;;0.15;73.53
70072;BME280;57434;42.794;23.302;2023-04-07T05:20:25;95446.19;;;0.57;73.43
70072;BME280;57434;42.794;23.302;2023-04-07T05:21:28;95455.03;;;0.65;73.56
70072;BME280;57434;42.794;23.302;2023-04-07T05:22:30;95444.81;;;0.33;73.91
70072;BME280;57434;42.794;23.302;2023-04-07T05:23:34;95453.41;;;0.51;74.13
70072;BME280;57434;42.794;23.302;2023-04-07T05:24:36;95451.25;;;0.59;74.21
70072;BME280;57434;42.794;23.302;2023-04-07T05:25:38;95428.22;;;0.49;74.40
70072;BME280;57434;42.794;23.302;2023-04-07T05:26:40;95463.56;;;0.70;74.02
70072;BME280;57434;42.794;23.302;2023-04-07T05:27:42;95361.75;;;0.11;73.69
70072;BME280;57434;42.794;23.302;2023-04-07T05:28:44;95462.88;;;0.66;73.78
70072;BME280;57434;42.794;23.302;2023-04-07T05:29:46;95452.91;;;0.56;73.59
70072;BME280;57434;42.794;23.302;2023-04-07T05:30:48;95437.91;;;0.57;73.96
70072;BME280;57434;42.794;23.302;2023-04-07T05:31:49;95445.66;;;0.46;73.99
70072;BME280;57434;42.794;23.302;2023-04-07T05:32:52;95460.03;;;0.70;74.08
70072;BME280;57434;42.794;23.302;2023-04-07T05:33:54;95464.34;;;0.71;74.18
70072;BME280;57434;42.794;23.302;2023-04-07T05:34:56;95455.91;;;0.78;73.98
70072;BME280;57434;42.794;23.302;2023-04-07T05:35:57;95451.31;;;0.72;74.21